Hawi, HI (96719)

3:52 PM HST on August 03, 2015 (GMT -1000)
Downtown Hawi | | Change Station
CLOSE
Current Station
Personal Weather Station
Location: Hawi, HI
Elevation: 640 ft
Nearby Weather Stations
Active Advisory: High Surf Advisory

Elev 640 ft 20.24 °N, 155.83 °W | Updated 46 seconds ago

Mostly Cloudy
Mostly Cloudy
77.3 °F
Feels Like 79 °F
N
6.0
Wind Variable Wind from East
Gusts 17.0 mph

Today
High -- | Low -- °F
--% Chance of Precip.
Yesterday
High -- | Low -- °F
Precip. -- in
5:59 AM 6:59 PM
Waning Gibbous, 82% visible
Pressure 29.80 in
Visibility 10.0 miles
Clouds Scattered Clouds 6000 ft
Mostly Cloudy 12000 ft
Heat Index 79 °F
Dew Point 74 °F
Humidity 90%
Rainfall 0.36 in
Snow Depth Not available.
UV 5 out of 12
Pollen Not available.
Air Quality Not available.
Flu Activity Not available.
METAR PHKO 040053Z 33015KT 10SM SCT060 BKN120 32/22 A2980 RMK AO2 SLP090 T03170217 PNO

More Conditions Fewer Conditions

Pressure 29.80 in
Visibility 10.0 miles
Clouds Scattered Clouds 6000 ft
Mostly Cloudy 12000 ft
Heat Index 79 °F
Dew Point 74 °F
Humidity 90%
Rainfall 0.36 in
Snow Depth Not available.
UV 5 out of 12
Pollen Not available.
Air Quality Not available.
Flu Activity Not available.
METAR PHKO 040053Z 33015KT 10SM SCT060 BKN120 32/22 A2980 RMK AO2 SLP090 T03170217 PNO

More Conditions Fewer Conditions

10-Day Weather Forecast

×

Almanac

Astronomy

Aug. 03, 2015 Rise Set
Actual Time
Civil Twilight
Nautical Twilight
Astronomical Twilight
Moon
Length of Visible Light
Length of Day
Tomorrow will be .
, % of the Moon is Illuminated

Today's Extremes

State Highs State Lows

Community

WunderPhotos

Upload Photos

1,843,820 photos uploaded!

WunderBlogs® & News

Nearby

Air Quality

  Air Quality AQ Index Pollutant
Not available.

Snow Depth

Station Depth Elevation

Earthquake Activity

City Distance Mag. Time & Date
Minimum magnitude displayed is 2.5.

Coastal Water Temperatures

Place Temperature

Stations

Nearby Weather Stations

Station Location Temp. Windchill Dew Point Humidity Wind Precip. Elev Updated Type
                   
High Surf Advisory
Statement as of 3:04 PM HST on August 03, 2015

... High surf advisory remains in effect until 6 PM HST Tuesday...

A high surf advisory remains in effect until 6 PM HST Tuesday.

* Surf... along east facing shores... 6 to 10 feet tonight and 5 to
8 feet on Tuesday.

* Timing... surf will remain elevated tonight and then decline on
Tuesday.

* Impacts... moderate... expect strong breaking waves... shore
break... and strong longshore and rip currents making swimming
difficult and dangerous.

Precautionary/preparedness actions... beachgoers... swimmers... and
surfers should heed all advice given by ocean safety officials
and exercise caution. Boaters should expect recreational surfers
and body boarders utilizing Harbor channels to access surfing
areas.